sensor_id;sensor_type;location;lat;lon;timestamp;pressure;altitude;pressure_sealevel;temperature
76898;BMP180;65856;52.178;21.176;2023-03-08T00:01:02;98492.00;;;2.60
76898;BMP180;65856;52.178;21.176;2023-03-08T00:03:30;98492.60;;;2.60
76898;BMP180;65856;52.178;21.176;2023-03-08T00:05:58;98493.00;;;2.50
76898;BMP180;65856;52.178;21.176;2023-03-08T00:08:30;98494.00;;;2.50
76898;BMP180;65856;52.178;21.176;2023-03-08T00:10:58;98491.00;;;2.52
76898;BMP180;65856;52.178;21.176;2023-03-08T00:13:26;98492.60;;;2.50
76898;BMP180;65856;52.178;21.176;2023-03-08T00:15:58;98497.40;;;2.50
76898;BMP180;65856;52.178;21.176;2023-03-08T00:18:26;98500.60;;;2.40
76898;BMP180;65856;52.178;21.176;2023-03-08T00:21:00;98497.00;;;2.30
76898;BMP180;65856;52.178;21.176;2023-03-08T00:23:29;98502.00;;;2.20
76898;BMP180;65856;52.178;21.176;2023-03-08T00:25:58;98501.40;;;2.20
76898;BMP180;65856;52.178;21.176;2023-03-08T00:28:26;98500.00;;;2.20
76898;BMP180;65856;52.178;21.176;2023-03-08T00:30:59;98499.40;;;2.22
76898;BMP180;65856;52.178;21.176;2023-03-08T00:33:28;98497.00;;;2.30
76898;BMP180;65856;52.178;21.176;2023-03-08T00:35:59;98500.40;;;2.30
76898;BMP180;65856;52.178;21.176;2023-03-08T00:38:29;98500.20;;;2.40
76898;BMP180;65856;52.178;21.176;2023-03-08T00:40:57;98497.80;;;2.40
76898;BMP180;65856;52.178;21.176;2023-03-08T00:43:27;98493.00;;;2.42
76898;BMP180;65856;52.178;21.176;2023-03-08T00:45:56;98489.60;;;2.40
76898;BMP180;65856;52.178;21.176;2023-03-08T00:48:24;98486.40;;;2.40
76898;BMP180;65856;52.178;21.176;2023-03-08T00:50:53;98491.00;;;2.42
76898;BMP180;65856;52.178;21.176;2023-03-08T00:53:21;98485.20;;;2.50
76898;BMP180;65856;52.178;21.176;2023-03-08T00:55:51;98488.40;;;2.50
76898;BMP180;65856;52.178;21.176;2023-03-08T00:58:20;98487.20;;;2.50
76898;BMP180;65856;52.178;21.176;2023-03-08T01:00:48;98491.60;;;2.60
76898;BMP180;65856;52.178;21.176;2023-03-08T01:03:17;98491.20;;;2.60
76898;BMP180;65856;52.178;21.176;2023-03-08T01:05:48;98488.20;;;2.50
76898;BMP180;65856;52.178;21.176;2023-03-08T01:08:18;98492.80;;;2.50
76898;BMP180;65856;52.178;21.176;2023-03-08T01:10:49;98497.60;;;2.32
76898;BMP180;65856;52.178;21.176;2023-03-08T01:13:18;98497.20;;;2.20
76898;BMP180;65856;52.178;21.176;2023-03-08T01:15:47;98496.60;;;2.18
76898;BMP180;65856;52.178;21.176;2023-03-08T01:18:16;98503.20;;;2.20
76898;BMP180;65856;52.178;21.176;2023-03-08T01:20:44;98501.40;;;2.20
76898;BMP180;65856;52.178;21.176;2023-03-08T01:23:12;98496.80;;;2.20
76898;BMP180;65856;52.178;21.176;2023-03-08T01:25:40;98499.00;;;2.20
76898;BMP180;65856;52.178;21.176;2023-03-08T01:28:08;98500.00;;;2.20
76898;BMP180;65856;52.178;21.176;2023-03-08T01:30:36;98495.60;;;2.20
76898;BMP180;65856;52.178;21.176;2023-03-08T01:33:04;98495.60;;;2.16
76898;BMP180;65856;52.178;21.176;2023-03-08T01:35:32;98492.20;;;2.10
76898;BMP180;65856;52.178;21.176;2023-03-08T01:38:00;98483.40;;;2.10
76898;BMP180;65856;52.178;21.176;2023-03-08T01:40:28;98487.00;;;2.10
76898;BMP180;65856;52.178;21.176;2023-03-08T01:42:56;98486.40;;;2.10
76898;BMP180;65856;52.178;21.176;2023-03-08T01:48:48;98489.60;;;2.16
76898;BMP180;65856;52.178;21.176;2023-03-08T01:51:24;98494.00;;;2.20
76898;BMP180;65856;52.178;21.176;2023-03-08T01:53:57;98497.20;;;2.20
76898;BMP180;65856;52.178;21.176;2023-03-08T01:56:26;98498.00;;;2.20
76898;BMP180;65856;52.178;21.176;2023-03-08T01:58:56;98493.60;;;2.10
76898;BMP180;65856;52.178;21.176;2023-03-08T02:01:25;98480.40;;;2.06
76898;BMP180;65856;52.178;21.176;2023-03-08T02:03:54;98481.40;;;2.00
76898;BMP180;65856;52.178;21.176;2023-03-08T02:06:22;98483.40;;;2.00
76898;BMP180;65856;52.178;21.176;2023-03-08T02:08:51;98476.40;;;2.00
76898;BMP180;65856;52.178;21.176;2023-03-08T02:11:22;98480.00;;;2.00
76898;BMP180;65856;52.178;21.176;2023-03-08T02:13:52;98483.60;;;2.00
76898;BMP180;65856;52.178;21.176;2023-03-08T02:16:22;98490.40;;;2.10
76898;BMP180;65856;52.178;21.176;2023-03-08T02:18:53;98490.00;;;2.10
76898;BMP180;65856;52.178;21.176;2023-03-08T02:21:22;98490.40;;;2.10
76898;BMP180;65856;52.178;21.176;2023-03-08T02:23:50;98490.20;;;2.10
76898;BMP180;65856;52.178;21.176;2023-03-08T02:26:19;98491.60;;;2.10
76898;BMP180;65856;52.178;21.176;2023-03-08T02:28:47;98491.20;;;2.00
76898;BMP180;65856;52.178;21.176;2023-03-08T02:31:16;98492.40;;;2.00
76898;BMP180;65856;52.178;21.176;2023-03-08T02:33:44;98497.00;;;2.00
76898;BMP180;65856;52.178;21.176;2023-03-08T02:36:12;98501.20;;;2.00
76898;BMP180;65856;52.178;21.176;2023-03-08T02:38:40;98497.00;;;2.00
76898;BMP180;65856;52.178;21.176;2023-03-08T02:41:08;98503.40;;;2.00
76898;BMP180;65856;52.178;21.176;2023-03-08T02:43:36;98508.40;;;2.00
76898;BMP180;65856;52.178;21.176;2023-03-08T02:46:04;98504.40;;;2.02
76898;BMP180;65856;52.178;21.176;2023-03-08T02:48:33;98505.80;;;2.00
76898;BMP180;65856;52.178;21.176;2023-03-08T02:51:01;98498.60;;;1.90
76898;BMP180;65856;52.178;21.176;2023-03-08T02:53:29;98504.60;;;1.80
76898;BMP180;65856;52.178;21.176;2023-03-08T02:55:57;98505.20;;;1.70
76898;BMP180;65856;52.178;21.176;2023-03-08T02:58:25;98506.80;;;1.70
76898;BMP180;65856;52.178;21.176;2023-03-08T03:00:53;98512.60;;;1.70
76898;BMP180;65856;52.178;21.176;2023-03-08T03:03:21;98513.00;;;1.70
76898;BMP180;65856;52.178;21.176;2023-03-08T03:05:50;98522.80;;;1.70
76898;BMP180;65856;52.178;21.176;2023-03-08T03:08:18;98521.20;;;1.74
76898;BMP180;65856;52.178;21.176;2023-03-08T03:10:46;98523.60;;;1.80
76898;BMP180;65856;52.178;21.176;2023-03-08T03:13:14;98525.60;;;1.88
76898;BMP180;65856;52.178;21.176;2023-03-08T03:15:42;98523.40;;;1.90
76898;BMP180;65856;52.178;21.176;2023-03-08T03:18:10;98520.60;;;1.90
76898;BMP180;65856;52.178;21.176;2023-03-08T03:20:39;98527.80;;;1.90
76898;BMP180;65856;52.178;21.176;2023-03-08T03:23:07;98528.60;;;1.90
76898;BMP180;65856;52.178;21.176;2023-03-08T03:25:38;98526.00;;;1.90
76898;BMP180;65856;52.178;21.176;2023-03-08T03:28:06;98537.00;;;1.90
76898;BMP180;65856;52.178;21.176;2023-03-08T03:30:34;98543.00;;;1.90
76898;BMP180;65856;52.178;21.176;2023-03-08T03:33:02;98543.40;;;1.90
76898;BMP180;65856;52.178;21.176;2023-03-08T03:35:30;98539.40;;;1.82
76898;BMP180;65856;52.178;21.176;2023-03-08T03:37:58;98545.20;;;1.84
76898;BMP180;65856;52.178;21.176;2023-03-08T03:40:26;98548.20;;;1.86
76898;BMP180;65856;52.178;21.176;2023-03-08T03:42:54;98546.80;;;1.90
76898;BMP180;65856;52.178;21.176;2023-03-08T03:45:22;98550.20;;;1.90
76898;BMP180;65856;52.178;21.176;2023-03-08T03:47:50;98549.60;;;1.90
76898;BMP180;65856;52.178;21.176;2023-03-08T03:50:19;98559.40;;;1.98
76898;BMP180;65856;52.178;21.176;2023-03-08T03:52:47;98567.60;;;2.00
76898;BMP180;65856;52.178;21.176;2023-03-08T03:55:15;98562.80;;;2.00
76898;BMP180;65856;52.178;21.176;2023-03-08T03:57:43;98562.60;;;1.98
76898;BMP180;65856;52.178;21.176;2023-03-08T04:00:14;98561.60;;;2.00
76898;BMP180;65856;52.178;21.176;2023-03-08T04:02:43;98568.40;;;2.00
76898;BMP180;65856;52.178;21.176;2023-03-08T04:05:11;98568.20;;;1.90
76898;BMP180;65856;52.178;21.176;2023-03-08T04:07:39;98578.60;;;1.90
76898;BMP180;65856;52.178;21.176;2023-03-08T04:10:09;98578.20;;;1.80
76898;BMP180;65856;52.178;21.176;2023-03-08T04:12:37;98580.60;;;1.80
76898;BMP180;65856;52.178;21.176;2023-03-08T04:15:08;98579.60;;;1.74
76898;BMP180;65856;52.178;21.176;2023-03-08T04:17:36;98582.80;;;1.70
76898;BMP180;65856;52.178;21.176;2023-03-08T04:20:07;98585.80;;;1.70
76898;BMP180;65856;52.178;21.176;2023-03-08T04:22:35;98584.00;;;1.70
76898;BMP180;65856;52.178;21.176;2023-03-08T04:25:04;98578.40;;;1.70
76898;BMP180;65856;52.178;21.176;2023-03-08T04:27:32;98581.00;;;1.78
76898;BMP180;65856;52.178;21.176;2023-03-08T04:30:00;98589.20;;;1.80
76898;BMP180;65856;52.178;21.176;2023-03-08T04:32:30;98590.40;;;1.80
76898;BMP180;65856;52.178;21.176;2023-03-08T04:34:58;98593.60;;;1.80
76898;BMP180;65856;52.178;21.176;2023-03-08T04:37:27;98590.40;;;1.76
76898;BMP180;65856;52.178;21.176;2023-03-08T04:39:55;98600.00;;;1.74
76898;BMP180;65856;52.178;21.176;2023-03-08T04:42:23;98596.00;;;1.70
76898;BMP180;65856;52.178;21.176;2023-03-08T04:44:51;98594.60;;;1.70
76898;BMP180;65856;52.178;21.176;2023-03-08T04:47:19;98591.00;;;1.70
76898;BMP180;65856;52.178;21.176;2023-03-08T04:49:47;98591.80;;;1.70
76898;BMP180;65856;52.178;21.176;2023-03-08T04:52:15;98591.20;;;1.70
76898;BMP180;65856;52.178;21.176;2023-03-08T04:54:43;98598.00;;;1.70
76898;BMP180;65856;52.178;21.176;2023-03-08T04:57:11;98594.40;;;1.62
76898;BMP180;65856;52.178;21.176;2023-03-08T04:59:39;98597.60;;;1.60
76898;BMP180;65856;52.178;21.176;2023-03-08T05:02:09;98600.80;;;1.60
76898;BMP180;65856;52.178;21.176;2023-03-08T05:04:37;98601.20;;;1.60
76898;BMP180;65856;52.178;21.176;2023-03-08T05:07:05;98600.40;;;1.60
76898;BMP180;65856;52.178;21.176;2023-03-08T05:09:34;98606.00;;;1.60
76898;BMP180;65856;52.178;21.176;2023-03-08T05:12:02;98608.20;;;1.60
76898;BMP180;65856;52.178;21.176;2023-03-08T05:14:30;98612.20;;;1.60
76898;BMP180;65856;52.178;21.176;2023-03-08T05:16:58;98608.00;;;1.60
76898;BMP180;65856;52.178;21.176;2023-03-08T05:19:26;98612.00;;;1.68
76898;BMP180;65856;52.178;21.176;2023-03-08T05:21:54;98619.00;;;1.62
76898;BMP180;65856;52.178;21.176;2023-03-08T05:24:22;98621.20;;;1.70
76898;BMP180;65856;52.178;21.176;2023-03-08T05:26:50;98630.80;;;1.70
76898;BMP180;65856;52.178;21.176;2023-03-08T05:29:19;98634.00;;;1.80
76898;BMP180;65856;52.178;21.176;2023-03-08T05:31:48;98641.00;;;1.72
76898;BMP180;65856;52.178;21.176;2023-03-08T05:34:17;98648.00;;;1.70
76898;BMP180;65856;52.178;21.176;2023-03-08T05:36:45;98650.60;;;1.70
76898;BMP180;65856;52.178;21.176;2023-03-08T05:39:12;98651.60;;;1.70
76898;BMP180;65856;52.178;21.176;2023-03-08T05:41:41;98653.80;;;1.60
76898;BMP180;65856;52.178;21.176;2023-03-08T05:44:09;98659.40;;;1.60
76898;BMP180;65856;52.178;21.176;2023-03-08T05:46:37;98665.80;;;1.60
76898;BMP180;65856;52.178;21.176;2023-03-08T05:49:05;98660.40;;;1.60
76898;BMP180;65856;52.178;21.176;2023-03-08T05:51:33;98665.00;;;1.50
76898;BMP180;65856;52.178;21.176;2023-03-08T05:54:01;98665.20;;;1.58
76898;BMP180;65856;52.178;21.176;2023-03-08T05:56:29;98669.20;;;1.60
76898;BMP180;65856;52.178;21.176;2023-03-08T05:58:57;98667.80;;;1.60
76898;BMP180;65856;52.178;21.176;2023-03-08T06:01:27;98677.20;;;1.60
76898;BMP180;65856;52.178;21.176;2023-03-08T06:03:57;98683.20;;;1.60
76898;BMP180;65856;52.178;21.176;2023-03-08T06:06:27;98684.60;;;1.60
76898;BMP180;65856;52.178;21.176;2023-03-08T06:08:55;98695.20;;;1.60
76898;BMP180;65856;52.178;21.176;2023-03-08T06:11:23;98700.80;;;1.60
76898;BMP180;65856;52.178;21.176;2023-03-08T06:13:51;98710.00;;;1.50
76898;BMP180;65856;52.178;21.176;2023-03-08T06:16:21;98714.00;;;1.50
76898;BMP180;65856;52.178;21.176;2023-03-08T06:18:49;98711.20;;;1.48
76898;BMP180;65856;52.178;21.176;2023-03-08T06:21:19;98715.20;;;1.40
76898;BMP180;65856;52.178;21.176;2023-03-08T06:23:48;98723.40;;;1.40
76898;BMP180;65856;52.178;21.176;2023-03-08T06:26:16;98732.60;;;1.40
76898;BMP180;65856;52.178;21.176;2023-03-08T06:28:45;98740.20;;;1.40
76898;BMP180;65856;52.178;21.176;2023-03-08T06:31:16;98742.60;;;1.40
76898;BMP180;65856;52.178;21.176;2023-03-08T06:33:44;98741.80;;;1.40
76898;BMP180;65856;52.178;21.176;2023-03-08T06:36:15;98749.20;;;1.40
76898;BMP180;65856;52.178;21.176;2023-03-08T06:38:44;98750.60;;;1.40
76898;BMP180;65856;52.178;21.176;2023-03-08T06:41:14;98760.20;;;1.40
76898;BMP180;65856;52.178;21.176;2023-03-08T06:43:43;98761.60;;;1.40
76898;BMP180;65856;52.178;21.176;2023-03-08T06:46:14;98758.80;;;1.32
76898;BMP180;65856;52.178;21.176;2023-03-08T06:48:45;98763.20;;;1.40
76898;BMP180;65856;52.178;21.176;2023-03-08T06:51:13;98773.20;;;1.38
76898;BMP180;65856;52.178;21.176;2023-03-08T06:53:42;98777.80;;;1.40
76898;BMP180;65856;52.178;21.176;2023-03-08T06:56:14;98784.20;;;1.50
76898;BMP180;65856;52.178;21.176;2023-03-08T06:58:42;98777.80;;;1.72
76898;BMP180;65856;52.178;21.176;2023-03-08T07:01:12;98784.40;;;1.80
76898;BMP180;65856;52.178;21.176;2023-03-08T07:03:41;98774.40;;;1.86
76898;BMP180;65856;52.178;21.176;2023-03-08T07:06:11;98790.00;;;2.12
76898;BMP180;65856;52.178;21.176;2023-03-08T07:08:40;98771.40;;;2.32
76898;BMP180;65856;52.178;21.176;2023-03-08T07:11:09;98794.20;;;2.68
76898;BMP180;65856;52.178;21.176;2023-03-08T07:13:38;98786.40;;;2.84
76898;BMP180;65856;52.178;21.176;2023-03-08T07:16:11;98778.00;;;3.08
76898;BMP180;65856;52.178;21.176;2023-03-08T07:18:40;98778.80;;;3.50
76898;BMP180;65856;52.178;21.176;2023-03-08T07:21:09;98791.00;;;3.84
76898;BMP180;65856;52.178;21.176;2023-03-08T07:23:37;98806.80;;;4.20
76898;BMP180;65856;52.178;21.176;2023-03-08T07:26:07;98788.40;;;4.20
76898;BMP180;65856;52.178;21.176;2023-03-08T07:28:36;98804.80;;;4.20
76898;BMP180;65856;52.178;21.176;2023-03-08T07:31:04;98799.40;;;4.30
76898;BMP180;65856;52.178;21.176;2023-03-08T07:33:32;98805.00;;;4.42
76898;BMP180;65856;52.178;21.176;2023-03-08T07:36:01;98797.60;;;4.62
76898;BMP180;65856;52.178;21.176;2023-03-08T07:38:29;98790.80;;;5.00
76898;BMP180;65856;52.178;21.176;2023-03-08T07:40:57;98816.80;;;5.26
76898;BMP180;65856;52.178;21.176;2023-03-08T07:43:27;98803.40;;;5.28
76898;BMP180;65856;52.178;21.176;2023-03-08T07:45:58;98825.20;;;5.40
76898;BMP180;65856;52.178;21.176;2023-03-08T07:48:27;98807.80;;;5.40
76898;BMP180;65856;52.178;21.176;2023-03-08T07:50:59;98827.60;;;5.60
76898;BMP180;65856;52.178;21.176;2023-03-08T07:53:30;98818.40;;;5.42
76898;BMP180;65856;52.178;21.176;2023-03-08T07:55:59;98823.00;;;5.76
76898;BMP180;65856;52.178;21.176;2023-03-08T07:58:27;98844.40;;;5.90
76898;BMP180;65856;52.178;21.176;2023-03-08T08:00:56;98829.60;;;5.86
76898;BMP180;65856;52.178;21.176;2023-03-08T08:03:24;98838.60;;;5.94
76898;BMP180;65856;52.178;21.176;2023-03-08T08:05:52;98833.00;;;5.72
76898;BMP180;65856;52.178;21.176;2023-03-08T08:08:20;98850.60;;;5.70
76898;BMP180;65856;52.178;21.176;2023-03-08T08:10:48;98856.80;;;5.80
76898;BMP180;65856;52.178;21.176;2023-03-08T08:13:16;98851.00;;;5.96
76898;BMP180;65856;52.178;21.176;2023-03-08T08:15:44;98845.20;;;6.00
76898;BMP180;65856;52.178;21.176;2023-03-08T08:18:13;98864.00;;;5.90
76898;BMP180;65856;52.178;21.176;2023-03-08T08:20:41;98867.40;;;6.00
76898;BMP180;65856;52.178;21.176;2023-03-08T08:23:10;98851.00;;;6.02
76898;BMP180;65856;52.178;21.176;2023-03-08T08:25:40;98867.80;;;5.90
76898;BMP180;65856;52.178;21.176;2023-03-08T08:28:08;98873.80;;;5.50
76898;BMP180;65856;52.178;21.176;2023-03-08T08:30:36;98868.80;;;5.28
76898;BMP180;65856;52.178;21.176;2023-03-08T08:33:04;98869.20;;;5.20
76898;BMP180;65856;52.178;21.176;2023-03-08T08:35:32;98873.00;;;5.20
76898;BMP180;65856;52.178;21.176;2023-03-08T08:38:00;98877.60;;;5.40
76898;BMP180;65856;52.178;21.176;2023-03-08T08:40:28;98867.20;;;5.50
76898;BMP180;65856;52.178;21.176;2023-03-08T08:42:56;98886.00;;;5.60
76898;BMP180;65856;52.178;21.176;2023-03-08T08:45:24;98884.60;;;5.50
76898;BMP180;65856;52.178;21.176;2023-03-08T08:47:52;98889.40;;;5.40
76898;BMP180;65856;52.178;21.176;2023-03-08T08:50:21;98895.20;;;5.40
76898;BMP180;65856;52.178;21.176;2023-03-08T08:52:49;98895.00;;;5.30
76898;BMP180;65856;52.178;21.176;2023-03-08T08:55:17;98889.40;;;5.10
76898;BMP180;65856;52.178;21.176;2023-03-08T08:57:45;98873.40;;;5.22
76898;BMP180;65856;52.178;21.176;2023-03-08T09:00:16;98884.00;;;5.28
76898;BMP180;65856;52.178;21.176;2023-03-08T09:02:46;98887.40;;;5.28
76898;BMP180;65856;52.178;21.176;2023-03-08T09:05:14;98899.00;;;5.30
76898;BMP180;65856;52.178;21.176;2023-03-08T09:07:42;98900.80;;;5.00
76898;BMP180;65856;52.178;21.176;2023-03-08T09:10:12;98900.80;;;4.92
76898;BMP180;65856;52.178;21.176;2023-03-08T09:12:40;98889.00;;;4.70
76898;BMP180;65856;52.178;21.176;2023-03-08T09:15:10;98880.20;;;5.00
76898;BMP180;65856;52.178;21.176;2023-03-08T09:17:38;98884.40;;;5.42
76898;BMP180;65856;52.178;21.176;2023-03-08T09:20:10;98895.20;;;5.70
76898;BMP180;65856;52.178;21.176;2023-03-08T09:22:39;98895.00;;;5.88
76898;BMP180;65856;52.178;21.176;2023-03-08T09:25:10;98903.20;;;6.00
76898;BMP180;65856;52.178;21.176;2023-03-08T09:27:40;98907.00;;;6.00
76898;BMP180;65856;52.178;21.176;2023-03-08T09:30:14;98901.60;;;5.90
76898;BMP180;65856;52.178;21.176;2023-03-08T09:32:43;98895.20;;;6.10
76898;BMP180;65856;52.178;21.176;2023-03-08T09:35:11;98894.60;;;6.28
76898;BMP180;65856;52.178;21.176;2023-03-08T09:37:39;98894.40;;;6.40
76898;BMP180;65856;52.178;21.176;2023-03-08T09:40:18;98904.40;;;6.64
76898;BMP180;65856;52.178;21.176;2023-03-08T09:42:47;98896.20;;;6.70
76898;BMP180;65856;52.178;21.176;2023-03-08T09:45:24;98901.00;;;6.90
76898;BMP180;65856;52.178;21.176;2023-03-08T09:47:59;98902.60;;;6.78
76898;BMP180;65856;52.178;21.176;2023-03-08T09:50:44;98900.00;;;6.70
76898;BMP180;65856;52.178;21.176;2023-03-08T09:53:27;98885.00;;;6.60
76898;BMP180;65856;52.178;21.176;2023-03-08T09:56:04;98891.80;;;6.80
76898;BMP180;65856;52.178;21.176;2023-03-08T09:58:39;98898.20;;;6.68
76898;BMP180;65856;52.178;21.176;2023-03-08T10:01:26;98900.00;;;6.60
76898;BMP180;65856;52.178;21.176;2023-03-08T10:04:24;98886.60;;;6.60
76898;BMP180;65856;52.178;21.176;2023-03-08T10:07:11;98890.80;;;6.80
76898;BMP180;65856;52.178;21.176;2023-03-08T10:09:47;98877.20;;;7.08
76898;BMP180;65856;52.178;21.176;2023-03-08T10:12:25;98891.20;;;7.20
76898;BMP180;65856;52.178;21.176;2023-03-08T10:15:03;98895.20;;;7.10
76898;BMP180;65856;52.178;21.176;2023-03-08T10:17:41;98900.00;;;7.10
76898;BMP180;65856;52.178;21.176;2023-03-08T10:20:19;98903.20;;;7.00
76898;BMP180;65856;52.178;21.176;2023-03-08T10:22:56;98901.80;;;6.80
76898;BMP180;65856;52.178;21.176;2023-03-08T10:25:27;98905.80;;;6.90
76898;BMP180;65856;52.178;21.176;2023-03-08T10:28:01;98899.80;;;7.10
76898;BMP180;65856;52.178;21.176;2023-03-08T10:30:35;98910.40;;;7.20
76898;BMP180;65856;52.178;21.176;2023-03-08T10:33:09;98910.40;;;7.00
76898;BMP180;65856;52.178;21.176;2023-03-08T10:35:51;98917.20;;;6.80
76898;BMP180;65856;52.178;21.176;2023-03-08T10:38:20;98905.80;;;6.70
76898;BMP180;65856;52.178;21.176;2023-03-08T10:40:55;98908.60;;;6.66
76898;BMP180;65856;52.178;21.176;2023-03-08T10:43:28;98910.00;;;6.56
76898;BMP180;65856;52.178;21.176;2023-03-08T10:46:04;98907.60;;;6.40
76898;BMP180;65856;52.178;21.176;2023-03-08T10:48:33;98901.20;;;6.48
76898;BMP180;65856;52.178;21.176;2023-03-08T10:51:05;98899.20;;;6.40
76898;BMP180;65856;52.178;21.176;2023-03-08T10:53:32;98896.80;;;6.24
76898;BMP180;65856;52.178;21.176;2023-03-08T10:56:01;98905.80;;;6.30
76898;BMP180;65856;52.178;21.176;2023-03-08T10:58:34;98908.60;;;6.20
76898;BMP180;65856;52.178;21.176;2023-03-08T11:01:05;98915.00;;;6.06
76898;BMP180;65856;52.178;21.176;2023-03-08T11:03:34;98914.40;;;5.90
76898;BMP180;65856;52.178;21.176;2023-03-08T11:06:05;98918.40;;;5.72
76898;BMP180;65856;52.178;21.176;2023-03-08T11:08:50;98916.80;;;5.50
76898;BMP180;65856;52.178;21.176;2023-03-08T11:11:18;98912.40;;;5.40
76898;BMP180;65856;52.178;21.176;2023-03-08T11:13:49;98920.60;;;5.30
76898;BMP180;65856;52.178;21.176;2023-03-08T11:16:54;98928.80;;;5.20
76898;BMP180;65856;52.178;21.176;2023-03-08T11:19:47;98924.00;;;5.10
76898;BMP180;65856;52.178;21.176;2023-03-08T11:22:37;98922.40;;;5.04
76898;BMP180;65856;52.178;21.176;2023-03-08T11:25:37;98919.20;;;5.00
76898;BMP180;65856;52.178;21.176;2023-03-08T11:28:31;98923.20;;;5.00
76898;BMP180;65856;52.178;21.176;2023-03-08T11:31:16;98914.00;;;5.00
76898;BMP180;65856;52.178;21.176;2023-03-08T11:37:00;98914.40;;;5.04
76898;BMP180;65856;52.178;21.176;2023-03-08T11:39:32;98908.20;;;5.06
76898;BMP180;65856;52.178;21.176;2023-03-08T11:42:12;98907.20;;;5.10
76898;BMP180;65856;52.178;21.176;2023-03-08T11:45:10;98901.60;;;5.10
76898;BMP180;65856;52.178;21.176;2023-03-08T11:48:10;98900.60;;;5.10
76898;BMP180;65856;52.178;21.176;2023-03-08T11:50:51;98891.80;;;5.10
76898;BMP180;65856;52.178;21.176;2023-03-08T11:53:33;98893.60;;;5.02
76898;BMP180;65856;52.178;21.176;2023-03-08T11:56:21;98898.00;;;5.00
76898;BMP180;65856;52.178;21.176;2023-03-08T11:59:01;98894.00;;;4.90
76898;BMP180;65856;52.178;21.176;2023-03-08T12:01:39;98889.40;;;4.80
76898;BMP180;65856;52.178;21.176;2023-03-08T12:04:12;98894.60;;;4.80
76898;BMP180;65856;52.178;21.176;2023-03-08T12:06:45;98885.00;;;4.90
76898;BMP180;65856;52.178;21.176;2023-03-08T12:09:22;98883.80;;;5.00
76898;BMP180;65856;52.178;21.176;2023-03-08T12:11:58;98879.40;;;5.10
76898;BMP180;65856;52.178;21.176;2023-03-08T12:14:33;98881.40;;;5.10
76898;BMP180;65856;52.178;21.176;2023-03-08T12:17:11;98880.00;;;5.10
76898;BMP180;65856;52.178;21.176;2023-03-08T12:19:45;98889.40;;;5.10
76898;BMP180;65856;52.178;21.176;2023-03-08T12:22:31;98882.40;;;5.02
76898;BMP180;65856;52.178;21.176;2023-03-08T12:25:14;98884.00;;;5.00
76898;BMP180;65856;52.178;21.176;2023-03-08T12:27:50;98892.80;;;4.92
76898;BMP180;65856;52.178;21.176;2023-03-08T12:30:32;98892.80;;;4.90
76898;BMP180;65856;52.178;21.176;2023-03-08T12:33:03;98892.20;;;4.90
76898;BMP180;65856;52.178;21.176;2023-03-08T12:35:35;98891.20;;;4.82
76898;BMP180;65856;52.178;21.176;2023-03-08T12:38:23;98886.20;;;4.80
76898;BMP180;65856;52.178;21.176;2023-03-08T12:40:54;98891.60;;;4.80
76898;BMP180;65856;52.178;21.176;2023-03-08T12:43:31;98893.00;;;4.78
76898;BMP180;65856;52.178;21.176;2023-03-08T12:46:07;98887.20;;;4.80
76898;BMP180;65856;52.178;21.176;2023-03-08T12:48:45;98887.80;;;4.90
76898;BMP180;65856;52.178;21.176;2023-03-08T12:51:23;98887.20;;;5.00
76898;BMP180;65856;52.178;21.176;2023-03-08T12:54:02;98884.40;;;5.04
76898;BMP180;65856;52.178;21.176;2023-03-08T12:56:37;98885.60;;;5.08
76898;BMP180;65856;52.178;21.176;2023-03-08T12:59:33;98895.80;;;5.00
76898;BMP180;65856;52.178;21.176;2023-03-08T13:02:23;98898.20;;;5.00
76898;BMP180;65856;52.178;21.176;2023-03-08T13:05:12;98893.60;;;5.00
76898;BMP180;65856;52.178;21.176;2023-03-08T13:07:56;98896.60;;;5.00
76898;BMP180;65856;52.178;21.176;2023-03-08T13:10:33;98890.20;;;5.00
76898;BMP180;65856;52.178;21.176;2023-03-08T13:13:19;98878.60;;;5.10
76898;BMP180;65856;52.178;21.176;2023-03-08T13:15:48;98878.00;;;5.20
76898;BMP180;65856;52.178;21.176;2023-03-08T13:18:19;98875.80;;;5.10
76898;BMP180;65856;52.178;21.176;2023-03-08T13:21:05;98873.20;;;5.10
76898;BMP180;65856;52.178;21.176;2023-03-08T13:23:41;98878.60;;;5.20
76898;BMP180;65856;52.178;21.176;2023-03-08T13:26:32;98878.80;;;5.10
76898;BMP180;65856;52.178;21.176;2023-03-08T13:29:12;98883.60;;;5.00
76898;BMP180;65856;52.178;21.176;2023-03-08T13:31:42;98882.00;;;5.00
76898;BMP180;65856;52.178;21.176;2023-03-08T13:34:27;98880.40;;;4.90
76898;BMP180;65856;52.178;21.176;2023-03-08T13:36:55;98875.80;;;4.90
76898;BMP180;65856;52.178;21.176;2023-03-08T13:39:25;98871.40;;;4.92
76898;BMP180;65856;52.178;21.176;2023-03-08T13:42:05;98870.80;;;5.00
76898;BMP180;65856;52.178;21.176;2023-03-08T13:44:33;98867.80;;;5.10
76898;BMP180;65856;52.178;21.176;2023-03-08T13:47:16;98869.80;;;5.20
76898;BMP180;65856;52.178;21.176;2023-03-08T13:49:45;98867.00;;;5.20
76898;BMP180;65856;52.178;21.176;2023-03-08T13:52:18;98856.00;;;5.20
76898;BMP180;65856;52.178;21.176;2023-03-08T13:54:50;98860.80;;;5.24
76898;BMP180;65856;52.178;21.176;2023-03-08T13:57:22;98857.40;;;5.38
76898;BMP180;65856;52.178;21.176;2023-03-08T13:59:54;98858.40;;;5.48
76898;BMP180;65856;52.178;21.176;2023-03-08T14:02:25;98856.60;;;5.52
76898;BMP180;65856;52.178;21.176;2023-03-08T14:04:53;98847.80;;;5.60
76898;BMP180;65856;52.178;21.176;2023-03-08T14:07:26;98850.20;;;5.66
76898;BMP180;65856;52.178;21.176;2023-03-08T14:09:55;98847.80;;;5.60
76898;BMP180;65856;52.178;21.176;2023-03-08T14:12:27;98847.00;;;5.50
76898;BMP180;65856;52.178;21.176;2023-03-08T14:14:56;98850.80;;;5.50
76898;BMP180;65856;52.178;21.176;2023-03-08T14:17:28;98848.60;;;5.40
76898;BMP180;65856;52.178;21.176;2023-03-08T14:19:59;98844.40;;;5.40
76898;BMP180;65856;52.178;21.176;2023-03-08T14:22:29;98844.00;;;5.36
76898;BMP180;65856;52.178;21.176;2023-03-08T14:25:01;98849.40;;;5.40
76898;BMP180;65856;52.178;21.176;2023-03-08T14:27:37;98847.00;;;5.50
76898;BMP180;65856;52.178;21.176;2023-03-08T14:30:15;98847.60;;;5.50
76898;BMP180;65856;52.178;21.176;2023-03-08T14:33:02;98842.40;;;5.52
76898;BMP180;65856;52.178;21.176;2023-03-08T14:35:33;98833.20;;;5.50
76898;BMP180;65856;52.178;21.176;2023-03-08T14:38:03;98831.60;;;5.50
76898;BMP180;65856;52.178;21.176;2023-03-08T14:40:47;98826.40;;;5.50